Метеостанция


АнтоновUKKM 181630Z AUTO 25004MPS 9999 // ///025/// ///// Q////
БориспольUKBB 181630Z 28004MPS 9999 FEW022 07/03 Q1016 R88/CLRD// NOSIG
Гаврышовка (Винница)UKWW 181630Z 30004MPS 9999 BKN027 08/03 Q1018 NOSIG
ДнепропетровскUKDD 181630Z 20003MPS 160V240 9999 FEW013 04/02 Q1017 R26/090070 NOSIG
ЖуляныUKKK 181630Z 27004MPS 9999 BKN025 08/04 Q1016 R26/190060 NOSIG
Запорожье(Мокрая)UKDE 181630Z 17003MPS CAVOK 05/03 Q1018 R20L/090070 NOSIG
Ивано-ФранковскUKLI 181630Z 00000MPS 9999 BKN036 07/01 Q1020 R28/090070 NOSIG
Кривой РогUKDR 181630Z 24005MPS CAVOK 06/02 Q1017 R18/09//70 NOSIG
ЛьвовUKLL 181630Z 27004MPS CAVOK 06/01 Q1020 R31/CLRD// NOSIG
НиколаевUKON 181500Z 22008MPS 9999 BKN010 07/04 Q1018 R22/090075 NOSIG
ОдессаUKOO 181630Z 21003MPS 9999 FEW006 06/05 Q1018 R16/090060 NOSIG
РовноUKLR 181500Z 25005MPS CAVOK 08/03 Q1016 NOSIG
УжгородUKLU 181600Z 00000MPS 9999 NSC 10/06 Q1021 R10/090070 NOSIG
ХарьковUKHH 181630Z 22005MPS 9999 BKN027 03/M00 Q1016 R25/0///81 NOSIG
ЧерновцыUKLN 181630Z 24001MPS CAVOK 07/03 Q1020 R15/09//70 NOSIG
Скачать:
Скачать этот файл (Metar_шпаргалка.jpg)Расшифровка METAR[ ]4799 Кб
Вся информация, которая имеется в использовании на сайте и доступная для скачивания, получена исключительно из открытых источников информации сети Интернет, всякое совпадение с данными, имеющими ограничения в доступе, случайное и не является преднамеренным.
^ Наверх